Time;durP1;ratioP1;P1;durP2;ratioP2;P2;SDS_P1;SDS_P2;PMS_P1;PMS_P2;Temp;Humidity;BMP_temperature;BMP_pressure;BME280_temperature;BME280_humidity;BME280_pressure;Samples;Min_cycle;Max_cycle;Signal;HPM_P1;HPM_P2
2023/03/15 00:02:05;;;;;;;19.37;8.27;;;;;;;;;;5078007;28;20210;-62
2023/03/15 00:04:33;;;;;;;12.23;6.30;;;;;;;;;;5077768;28;20225;-62
2023/03/15 00:07:02;;;;;;;5.33;3.13;;;;;;;;;;5077022;28;20206;-62
2023/03/15 00:09:29;;;;;;;6.80;3.00;;;;;;;;;;5077358;28;20265;-62
2023/03/15 00:11:57;;;;;;;4.97;2.67;;;;;;;;;;5077711;28;20206;-62
2023/03/15 00:14:27;;;;;;;4.63;1.90;;;;;;;;;;5077455;28;20285;-62
2023/03/15 00:16:55;;;;;;;6.67;1.50;;;;;;;;;;5070001;28;20260;-62
2023/03/15 00:19:23;;;;;;;5.70;1.80;;;;;;;;;;5077688;28;20242;-62
2023/03/15 00:21:50;;;;;;;5.37;1.50;;;;;;;;;;5077847;28;20234;-62
2023/03/15 00:24:18;;;;;;;9.37;1.93;;;;;;;;;;5077464;28;20315;-62
2023/03/15 00:26:46;;;;;;;5.17;1.60;;;;;;;;;;5077350;28;20685;-62
2023/03/15 00:29:14;;;;;;;5.57;1.70;;;;;;;;;;5072329;28;20289;-62
2023/03/15 00:31:44;;;;;;;5.20;1.57;;;;;;;;;;5077585;28;20321;-62
2023/03/15 00:34:12;;;;;;;4.20;1.80;;;;;;;;;;5069269;28;20237;-62
2023/03/15 00:36:42;;;;;;;7.67;1.77;;;;;;;;;;5077395;28;20676;-62
2023/03/15 00:39:10;;;;;;;5.00;2.00;;;;;;;;;;5077438;28;20241;-62
2023/03/15 00:41:38;;;;;;;6.03;1.90;;;;;;;;;;5077168;28;20206;-62
2023/03/15 00:44:06;;;;;;;7.13;1.60;;;;;;;;;;5077620;28;20206;-62
2023/03/15 00:46:34;;;;;;;3.50;1.93;;;;;;;;;;5077133;28;20233;-62
2023/03/15 00:49:03;;;;;;;5.90;1.87;;;;;;;;;;5076101;28;20268;-62
2023/03/15 00:51:32;;;;;;;4.17;1.80;;;;;;;;;;5064423;28;20202;-62
2023/03/15 00:54:00;;;;;;;3.77;1.70;;;;;;;;;;5077052;28;20740;-62
2023/03/15 00:56:29;;;;;;;2.43;1.63;;;;;;;;;;5076939;28;20228;-62
2023/03/15 00:58:57;;;;;;;5.77;1.60;;;;;;;;;;5076985;28;20217;-62
2023/03/15 01:01:26;;;;;;;3.73;1.30;;;;;;;;;;5077137;28;20680;-62
2023/03/15 01:03:54;;;;;;;2.90;1.20;;;;;;;;;;5076999;28;20595;-62
2023/03/15 01:06:24;;;;;;;3.13;1.43;;;;;;;;;;5073341;28;20210;-62
2023/03/15 01:08:54;;;;;;;7.20;5.10;;;;;;;;;;5073659;28;20237;-62
2023/03/15 01:11:23;;;;;;;15.27;10.03;;;;;;;;;;5077053;28;20210;-62
2023/03/15 01:13:51;;;;;;;4.40;1.80;;;;;;;;;;5077042;28;20234;-62
2023/03/15 01:16:20;;;;;;;4.97;1.80;;;;;;;;;;5077115;28;20207;-62
2023/03/15 01:18:50;;;;;;;1.87;1.10;;;;;;;;;;5079773;28;20206;-62
2023/03/15 01:21:18;;;;;;;6.47;1.27;;;;;;;;;;5080773;28;20229;-62
2023/03/15 01:23:48;;;;;;;5.40;1.57;;;;;;;;;;5079282;28;20576;-62
2023/03/15 01:26:16;;;;;;;3.07;1.10;;;;;;;;;;5080640;28;20233;-62
2023/03/15 01:28:44;;;;;;;4.70;0.97;;;;;;;;;;5075761;28;20225;-62
2023/03/15 01:31:16;;;;;;;5.67;1.57;;;;;;;;;;5080656;28;20257;-62
2023/03/15 01:33:44;;;;;;;3.60;2.03;;;;;;;;;;5080749;28;20206;-62
2023/03/15 01:36:13;;;;;;;2.40;1.20;;;;;;;;;;5080827;28;20241;-62
2023/03/15 01:38:40;;;;;;;2.23;1.07;;;;;;;;;;5080707;28;20214;-62
2023/03/15 01:41:10;;;;;;;4.93;1.67;;;;;;;;;;5071625;28;20606;-62
2023/03/15 01:43:38;;;;;;;2.60;1.30;;;;;;;;;;5080573;28;20553;-62
2023/03/15 01:46:07;;;;;;;2.37;1.20;;;;;;;;;;5080522;28;20206;-62
2023/03/15 01:48:38;;;;;;;5.33;1.27;;;;;;;;;;5080448;28;20213;-62
2023/03/15 01:51:09;;;;;;;5.00;1.17;;;;;;;;;;5080252;28;20230;-62
2023/03/15 01:53:37;;;;;;;2.80;1.33;;;;;;;;;;5080483;28;20210;-62
2023/03/15 01:56:06;;;;;;;4.33;1.40;;;;;;;;;;5079794;28;20230;-62
2023/03/15 01:58:35;;;;;;;3.47;1.00;;;;;;;;;;5078038;28;20695;-62
2023/03/15 02:01:04;;;;;;;2.77;1.13;;;;;;;;;;5080155;28;20232;-62
2023/03/15 02:03:34;;;;;;;4.40;1.30;;;;;;;;;;5079986;28;20576;-62
2023/03/15 02:06:04;;;;;;;2.77;1.40;;;;;;;;;;5080250;28;20202;-62
2023/03/15 02:08:35;;;;;;;1.17;1.07;;;;;;;;;;5080407;28;20202;-62
2023/03/15 02:11:04;;;;;;;2.53;1.23;;;;;;;;;;5079626;28;20253;-62
2023/03/15 02:13:33;;;;;;;3.53;1.37;;;;;;;;;;5079746;28;20259;-62
2023/03/15 02:16:05;;;;;;;3.57;1.33;;;;;;;;;;5070356;28;20727;-62
2023/03/15 02:18:35;;;;;;;2.53;1.43;;;;;;;;;;5079981;28;20213;-62
2023/03/15 02:21:08;;;;;;;3.40;1.47;;;;;;;;;;5079722;28;20288;-62
2023/03/15 02:23:36;;;;;;;4.60;1.40;;;;;;;;;;5079576;28;20229;-62
2023/03/15 02:26:11;;;;;;;3.43;1.47;;;;;;;;;;5079580;28;20199;-62
2023/03/15 02:28:41;;;;;;;3.63;1.60;;;;;;;;;;5074478;28;20565;-62
2023/03/15 02:31:09;;;;;;;2.70;1.30;;;;;;;;;;5076466;28;20261;-62
2023/03/15 02:33:41;;;;;;;2.40;1.23;;;;;;;;;;5079261;28;20220;-62
2023/03/15 02:36:11;;;;;;;1.33;1.00;;;;;;;;;;5079707;28;20222;-62
2023/03/15 02:38:39;;;;;;;3.43;1.30;;;;;;;;;;5079461;28;20293;-62
2023/03/15 02:41:07;;;;;;;6.13;1.13;;;;;;;;;;5078897;28;20674;-62
2023/03/15 02:43:36;;;;;;;5.00;1.60;;;;;;;;;;5079258;28;20206;-63
2023/03/15 02:46:06;;;;;;;1.70;0.90;;;;;;;;;;5079433;28;20206;-62
2023/03/15 02:48:35;;;;;;;3.70;1.03;;;;;;;;;;5073638;28;20625;-62
2023/03/15 02:51:03;;;;;;;2.97;1.30;;;;;;;;;;5074206;28;20226;-63
2023/03/15 02:53:31;;;;;;;4.70;1.60;;;;;;;;;;5079306;28;20209;-62
2023/03/15 02:55:59;;;;;;;5.67;1.93;;;;;;;;;;5078614;28;20724;-62
2023/03/15 02:58:27;;;;;;;3.33;1.27;;;;;;;;;;5079198;28;20210;-62
2023/03/15 03:00:55;;;;;;;3.80;1.83;;;;;;;;;;5078748;28;20722;-62
2023/03/15 03:03:25;;;;;;;2.30;1.83;;;;;;;;;;5078815;28;20206;-62
2023/03/15 03:05:53;;;;;;;3.13;1.10;;;;;;;;;;5074561;28;20226;-62
2023/03/15 03:08:20;;;;;;;3.50;1.00;;;;;;;;;;5078837;28;20214;-62
2023/03/15 03:10:48;;;;;;;2.47;1.30;;;;;;;;;;5078646;28;20244;-62
2023/03/15 03:13:16;;;;;;;1.30;0.97;;;;;;;;;;5078863;28;20204;-62
2023/03/15 03:15:44;;;;;;;4.73;1.50;;;;;;;;;;5085646;28;20313;-62
2023/03/15 03:18:12;;;;;;;3.27;1.30;;;;;;;;;;5078885;28;20573;-62
2023/03/15 03:20:44;;;;;;;2.97;1.37;;;;;;;;;;5079131;28;20237;-62
2023/03/15 03:23:12;;;;;;;2.47;1.27;;;;;;;;;;5079200;28;20305;-62
2023/03/15 03:25:41;;;;;;;2.03;1.30;;;;;;;;;;5079126;28;20217;-62
2023/03/15 03:28:09;;;;;;;5.47;1.47;;;;;;;;;;5078651;28;20218;-62
2023/03/15 03:30:39;;;;;;;6.13;1.90;;;;;;;;;;5078728;28;20708;-61
2023/03/15 03:33:07;;;;;;;4.00;1.03;;;;;;;;;;5078754;28;20260;-62
2023/03/15 03:35:35;;;;;;;3.40;1.13;;;;;;;;;;5078656;28;20222;-62
2023/03/15 03:38:04;;;;;;;3.93;1.10;;;;;;;;;;5078593;28;20575;-61
2023/03/15 03:40:32;;;;;;;3.00;1.23;;;;;;;;;;5078507;28;20305;-62
2023/03/15 03:43:00;;;;;;;1.83;0.83;;;;;;;;;;5078402;28;20207;-62
2023/03/15 03:45:28;;;;;;;3.10;0.97;;;;;;;;;;5071574;28;20222;-62
2023/03/15 03:47:57;;;;;;;3.40;1.23;;;;;;;;;;5074629;28;20202;-61
2023/03/15 03:50:25;;;;;;;3.60;1.70;;;;;;;;;;5078545;28;20318;-62
2023/03/15 03:52:54;;;;;;;3.90;1.40;;;;;;;;;;5078313;28;20213;-62
2023/03/15 03:55:24;;;;;;;3.90;1.30;;;;;;;;;;5078300;28;20257;-61
2023/03/15 03:57:52;;;;;;;2.47;1.17;;;;;;;;;;5077605;28;20241;-62
2023/03/15 04:00:20;;;;;;;4.33;1.70;;;;;;;;;;5077573;28;20724;-62
2023/03/15 04:02:53;;;;;;;1.57;1.17;;;;;;;;;;5077635;28;20238;-62
2023/03/15 04:05:21;;;;;;;4.93;1.40;;;;;;;;;;5078231;28;20209;-61
2023/03/15 04:07:49;;;;;;;4.03;1.70;;;;;;;;;;5077822;28;20681;-62
2023/03/15 04:10:17;;;;;;;2.17;1.00;;;;;;;;;;5077638;28;20270;-62
2023/03/15 04:12:46;;;;;;;5.33;1.70;;;;;;;;;;5077661;28;20217;-62
2023/03/15 04:15:14;;;;;;;3.40;1.53;;;;;;;;;;5077962;28;20241;-62
2023/03/15 04:17:42;;;;;;;7.17;1.50;;;;;;;;;;5077763;28;20233;-62
2023/03/15 04:20:11;;;;;;;4.63;1.23;;;;;;;;;;5077937;28;20230;-62
2023/03/15 04:22:39;;;;;;;2.90;1.20;;;;;;;;;;5077763;28;20749;-62
2023/03/15 04:25:08;;;;;;;2.40;0.90;;;;;;;;;;5077716;28;20897;-62
2023/03/15 04:27:36;;;;;;;2.60;1.17;;;;;;;;;;5077408;28;20546;-62
2023/03/15 04:30:06;;;;;;;3.80;1.17;;;;;;;;;;5077512;28;20250;-62
2023/03/15 04:32:33;;;;;;;4.33;1.30;;;;;;;;;;5077770;28;20288;-62
2023/03/15 04:35:03;;;;;;;4.47;1.57;;;;;;;;;;5077642;28;20244;-62
2023/03/15 04:37:31;;;;;;;6.43;1.30;;;;;;;;;;5077573;28;20294;-62
2023/03/15 04:40:00;;;;;;;3.63;0.97;;;;;;;;;;5077465;28;20301;-62
2023/03/15 04:42:27;;;;;;;4.23;1.47;;;;;;;;;;5077489;28;20293;-62
2023/03/15 04:44:55;;;;;;;4.17;1.73;;;;;;;;;;5077532;28;20229;-62
2023/03/15 04:47:25;;;;;;;3.50;1.07;;;;;;;;;;5077728;28;20212;-62
2023/03/15 04:49:53;;;;;;;1.90;0.80;;;;;;;;;;5077468;28;20230;-62
2023/03/15 04:52:21;;;;;;;3.57;1.23;;;;;;;;;;5078107;28;20202;-62
2023/03/15 04:54:49;;;;;;;5.47;1.37;;;;;;;;;;5081624;28;20206;-62
2023/03/15 04:57:16;;;;;;;2.33;1.10;;;;;;;;;;5081460;28;20232;-62
2023/03/15 04:59:44;;;;;;;1.17;0.93;;;;;;;;;;5081903;28;20309;-62
2023/03/15 05:02:12;;;;;;;6.57;1.20;;;;;;;;;;5081615;28;20217;-62
2023/03/15 05:04:42;;;;;;;4.23;1.50;;;;;;;;;;5081501;28;20213;-62
2023/03/15 05:07:10;;;;;;;1.83;1.20;;;;;;;;;;5081619;28;20213;-62
2023/03/15 05:09:38;;;;;;;1.20;1.10;;;;;;;;;;5081137;28;20237;-61
2023/03/15 05:12:07;;;;;;;2.40;1.33;;;;;;;;;;5081044;28;20286;-62
2023/03/15 05:14:35;;;;;;;4.93;1.60;;;;;;;;;;5081254;28;20549;-62
2023/03/15 05:17:03;;;;;;;9.63;1.40;;;;;;;;;;5081451;28;20230;-62
2023/03/15 05:19:33;;;;;;;1.37;1.00;;;;;;;;;;5081645;28;20264;-62
2023/03/15 05:22:03;;;;;;;4.30;1.27;;;;;;;;;;5081134;28;20206;-62
2023/03/15 05:24:30;;;;;;;4.27;1.20;;;;;;;;;;5081303;28;20230;-62
2023/03/15 05:26:58;;;;;;;2.97;1.33;;;;;;;;;;5081062;28;20198;-62
2023/03/15 05:29:26;;;;;;;2.97;1.40;;;;;;;;;;5080896;28;20236;-62
2023/03/15 05:31:54;;;;;;;1.97;1.40;;;;;;;;;;5080964;28;20209;-62
2023/03/15 05:34:23;;;;;;;3.60;1.70;;;;;;;;;;5080782;28;20202;-62
2023/03/15 05:36:51;;;;;;;2.60;1.37;;;;;;;;;;5080763;28;20793;-62
2023/03/15 05:39:21;;;;;;;5.00;1.20;;;;;;;;;;5080615;28;20605;-63
2023/03/15 05:41:49;;;;;;;3.20;1.30;;;;;;;;;;5067883;28;20255;-62
2023/03/15 05:44:17;;;;;;;5.57;1.60;;;;;;;;;;5080579;28;20245;-61
2023/03/15 05:46:45;;;;;;;7.07;1.33;;;;;;;;;;5070415;28;20215;-62
2023/03/15 05:49:13;;;;;;;4.60;2.03;;;;;;;;;;5067127;28;20303;-62
2023/03/15 05:51:42;;;;;;;3.53;1.60;;;;;;;;;;5080660;28;20210;-61
2023/03/15 05:54:10;;;;;;;3.27;1.60;;;;;;;;;;5080331;28;20293;-62
2023/03/15 05:56:40;;;;;;;8.07;1.37;;;;;;;;;;5080584;28;20309;-62
2023/03/15 05:59:07;;;;;;;12.90;2.47;;;;;;;;;;5080837;28;20213;-62
2023/03/15 06:01:35;;;;;;;3.07;1.20;;;;;;;;;;5081757;28;20657;-62
2023/03/15 06:04:04;;;;;;;6.40;1.83;;;;;;;;;;5100426;28;20240;-62
2023/03/15 06:06:32;;;;;;;4.93;1.70;;;;;;;;;;5100564;28;20744;-62
2023/03/15 06:09:00;;;;;;;2.10;1.60;;;;;;;;;;5100283;28;20638;-62
2023/03/15 06:11:28;;;;;;;9.50;2.03;;;;;;;;;;5100072;28;20205;-62
2023/03/15 06:13:59;;;;;;;8.90;2.60;;;;;;;;;;5100384;28;20240;-62
2023/03/15 06:16:27;;;;;;;4.70;1.90;;;;;;;;;;5099910;28;20209;-62
2023/03/15 06:18:55;;;;;;;5.63;1.87;;;;;;;;;;5100170;28;21022;-62
2023/03/15 06:21:22;;;;;;;3.07;1.87;;;;;;;;;;5100358;28;20212;-62
2023/03/15 06:23:50;;;;;;;2.57;1.53;;;;;;;;;;5096839;28;20202;-62
2023/03/15 06:26:18;;;;;;;5.13;1.47;;;;;;;;;;5084576;28;20654;-62
2023/03/15 06:28:46;;;;;;;7.77;1.57;;;;;;;;;;5080056;28;20206;-62
2023/03/15 06:31:16;;;;;;;4.90;1.70;;;;;;;;;;5079776;28;20240;-62
2023/03/15 06:33:44;;;;;;;4.37;1.13;;;;;;;;;;5080045;28;20217;-62
2023/03/15 06:36:13;;;;;;;1.17;1.07;;;;;;;;;;5079537;28;20221;-62
2023/03/15 06:38:41;;;;;;;3.53;1.40;;;;;;;;;;5079576;28;20258;-62
2023/03/15 06:41:08;;;;;;;2.77;1.50;;;;;;;;;;5079476;28;20282;-62
2023/03/15 06:43:36;;;;;;;5.07;1.37;;;;;;;;;;5079559;28;20323;-62
2023/03/15 06:46:04;;;;;;;4.83;2.33;;;;;;;;;;5079498;28;20206;-62
2023/03/15 06:48:34;;;;;;;6.43;2.63;;;;;;;;;;5074681;28;20681;-62
2023/03/15 06:51:02;;;;;;;5.10;3.00;;;;;;;;;;5073036;28;20218;-62
2023/03/15 06:53:30;;;;;;;9.07;3.30;;;;;;;;;;5078866;28;20554;-62
2023/03/15 06:55:58;;;;;;;3.73;2.20;;;;;;;;;;5078484;28;20650;-62
2023/03/15 06:58:26;;;;;;;4.93;1.80;;;;;;;;;;5079103;28;20288;-62
2023/03/15 07:00:54;;;;;;;3.90;1.93;;;;;;;;;;5078246;28;20261;-62
2023/03/15 07:03:22;;;;;;;7.13;1.80;;;;;;;;;;5078988;28;20206;-62
2023/03/15 07:05:53;;;;;;;5.33;2.33;;;;;;;;;;5079060;28;20241;-62
2023/03/15 07:08:21;;;;;;;3.80;1.80;;;;;;;;;;5078776;28;20209;-64
2023/03/15 07:10:49;;;;;;;5.77;1.90;;;;;;;;;;5078240;28;20225;-62
2023/03/15 07:13:17;;;;;;;5.60;1.50;;;;;;;;;;5078684;28;20206;-62
2023/03/15 07:15:46;;;;;;;7.50;2.47;;;;;;;;;;5078019;28;20206;-63
2023/03/15 07:18:14;;;;;;;4.47;1.60;;;;;;;;;;5078296;28;20237;-63
2023/03/15 07:20:43;;;;;;;3.07;1.70;;;;;;;;;;5078102;28;20570;-63
2023/03/15 07:23:12;;;;;;;3.10;1.67;;;;;;;;;;5078811;28;20298;-63
2023/03/15 07:25:40;;;;;;;3.50;1.83;;;;;;;;;;5083841;28;20232;-63
2023/03/15 07:28:22;;;;;;;5.23;2.77;;;;;;;;;;5098519;28;20201;-63
2023/03/15 07:30:54;;;;;;;2.90;1.40;;;;;;;;;;5088189;28;20775;-62
2023/03/15 07:33:22;;;;;;;4.87;1.83;;;;;;;;;;5076974;28;20209;-63
2023/03/15 07:35:52;;;;;;;3.70;1.70;;;;;;;;;;5078576;28;20238;-63
2023/03/15 07:38:22;;;;;;;7.33;1.93;;;;;;;;;;5078582;28;20234;-63
2023/03/15 07:40:50;;;;;;;3.80;1.73;;;;;;;;;;5078192;28;20226;-63
2023/03/15 07:43:18;;;;;;;7.67;2.17;;;;;;;;;;5078467;28;20232;-63
2023/03/15 07:45:46;;;;;;;6.17;2.43;;;;;;;;;;5078434;28;20263;-63
2023/03/15 07:48:14;;;;;;;2.67;1.53;;;;;;;;;;5078465;28;20212;-63
2023/03/15 07:50:42;;;;;;;5.60;1.63;;;;;;;;;;5077992;28;20230;-63
2023/03/15 07:53:09;;;;;;;2.60;1.80;;;;;;;;;;5078433;28;20209;-63
2023/03/15 07:55:39;;;;;;;1.80;1.47;;;;;;;;;;5077890;28;20550;-63
2023/03/15 07:58:07;;;;;;;5.47;1.60;;;;;;;;;;5078299;28;20257;-63
2023/03/15 08:00:35;;;;;;;3.40;1.43;;;;;;;;;;5077859;28;20226;-63
2023/03/15 08:03:03;;;;;;;4.87;1.43;;;;;;;;;;5078106;28;20202;-63
2023/03/15 08:05:31;;;;;;;3.30;1.50;;;;;;;;;;5078061;28;20202;-63
2023/03/15 08:07:59;;;;;;;6.87;1.77;;;;;;;;;;5067797;28;20194;-63
2023/03/15 08:10:27;;;;;;;4.00;1.53;;;;;;;;;;5077545;28;20244;-63
2023/03/15 08:12:56;;;;;;;4.50;1.50;;;;;;;;;;5077849;28;20210;-63
2023/03/15 08:15:24;;;;;;;3.10;1.30;;;;;;;;;;5077989;28;20234;-63
2023/03/15 08:17:52;;;;;;;3.63;1.20;;;;;;;;;;5077911;28;20232;-63
2023/03/15 08:20:21;;;;;;;2.33;1.20;;;;;;;;;;5078032;28;20230;-63
2023/03/15 08:22:50;;;;;;;1.63;1.10;;;;;;;;;;5077843;28;20206;-63
2023/03/15 08:25:19;;;;;;;4.27;1.30;;;;;;;;;;5077699;28;20580;-63
2023/03/15 08:27:47;;;;;;;1.87;1.23;;;;;;;;;;5076985;28;20238;-63
2023/03/15 08:30:17;;;;;;;3.50;1.80;;;;;;;;;;5077749;28;20226;-63
2023/03/15 08:32:46;;;;;;;5.67;1.43;;;;;;;;;;5077622;28;20289;-63
2023/03/15 08:35:15;;;;;;;5.10;1.57;;;;;;;;;;5077688;28;20213;-63
2023/03/15 08:37:45;;;;;;;4.43;1.30;;;;;;;;;;5077837;28;20202;-63
2023/03/15 08:40:14;;;;;;;1.67;1.33;;;;;;;;;;5077555;28;20217;-63
2023/03/15 08:42:42;;;;;;;5.40;1.40;;;;;;;;;;5077332;28;20206;-63
2023/03/15 08:45:10;;;;;;;1.20;1.10;;;;;;;;;;5077832;28;20210;-63
2023/03/15 08:47:39;;;;;;;3.43;1.40;;;;;;;;;;5077664;28;20237;-64
2023/03/15 08:50:09;;;;;;;7.57;4.23;;;;;;;;;;5077493;28;20222;-63
2023/03/15 08:52:37;;;;;;;4.07;2.10;;;;;;;;;;5077549;28;20237;-63
2023/03/15 08:55:06;;;;;;;2.93;1.53;;;;;;;;;;5077639;28;20210;-63
2023/03/15 08:57:34;;;;;;;3.30;1.73;;;;;;;;;;5077329;28;20237;-64
2023/03/15 09:00:07;;;;;;;6.60;1.80;;;;;;;;;;5077523;28;20230;-64
2023/03/15 09:02:35;;;;;;;5.80;1.63;;;;;;;;;;5077597;28;20250;-64
2023/03/15 09:05:05;;;;;;;6.47;1.60;;;;;;;;;;5077339;28;20653;-64
2023/03/15 09:07:34;;;;;;;4.63;1.40;;;;;;;;;;5077693;28;20217;-63
2023/03/15 09:10:03;;;;;;;3.83;1.53;;;;;;;;;;5077013;28;20277;-63
2023/03/15 09:12:32;;;;;;;4.63;1.07;;;;;;;;;;5077234;28;20206;-63
2023/03/15 09:15:00;;;;;;;6.67;1.50;;;;;;;;;;5077459;28;20206;-64
2023/03/15 09:17:28;;;;;;;3.20;1.20;;;;;;;;;;5066980;28;20198;-63
2023/03/15 09:19:56;;;;;;;1.93;0.80;;;;;;;;;;5076722;28;20234;-64
2023/03/15 09:22:25;;;;;;;4.87;1.00;;;;;;;;;;5077131;28;20245;-63
2023/03/15 09:25:06;;;;;;;2.97;1.20;;;;;;;;;;5077183;28;20280;-63
2023/03/15 09:27:34;;;;;;;2.17;1.47;;;;;;;;;;5076753;28;20233;-63
2023/03/15 09:30:02;;;;;;;2.03;1.10;;;;;;;;;;5076637;28;20693;-63
2023/03/15 09:32:34;;;;;;;2.77;0.90;;;;;;;;;;5076957;28;20217;-63
2023/03/15 09:35:03;;;;;;;3.10;1.30;;;;;;;;;;5076896;28;20213;-63
2023/03/15 09:37:34;;;;;;;2.80;1.20;;;;;;;;;;5077007;28;20206;-63
2023/03/15 09:40:06;;;;;;;3.23;1.17;;;;;;;;;;5079888;28;20226;-63
2023/03/15 09:42:38;;;;;;;3.30;0.80;;;;;;;;;;5080560;28;20289;-63
2023/03/15 09:45:10;;;;;;;2.10;1.00;;;;;;;;;;5080761;28;20212;-63
2023/03/15 09:47:42;;;;;;;3.10;1.00;;;;;;;;;;5080488;28;20237;-63
2023/03/15 09:50:16;;;;;;;0.60;0.60;;;;;;;;;;5089479;28;20300;-63
2023/03/15 09:52:47;;;;;;;1.93;1.20;;;;;;;;;;5100838;28;20206;-63
2023/03/15 09:55:17;;;;;;;2.03;0.90;;;;;;;;;;5097798;28;20242;-63
2023/03/15 09:57:47;;;;;;;1.70;0.93;;;;;;;;;;5080231;28;20685;-64
2023/03/15 10:00:19;;;;;;;2.20;0.83;;;;;;;;;;5080370;28;20229;-63
2023/03/15 10:02:51;;;;;;;5.10;1.30;;;;;;;;;;5080295;28;20206;-63
2023/03/15 10:05:20;;;;;;;3.03;1.00;;;;;;;;;;5080258;28;20210;-63
2023/03/15 10:07:51;;;;;;;1.80;0.77;;;;;;;;;;5079992;28;20230;-63
2023/03/15 10:10:20;;;;;;;3.67;1.10;;;;;;;;;;5079405;28;20230;-63
2023/03/15 10:12:52;;;;;;;1.40;1.23;;;;;;;;;;5076731;28;20234;-63
2023/03/15 10:15:24;;;;;;;2.57;1.00;;;;;;;;;;5073693;28;20224;-64
2023/03/15 10:17:59;;;;;;;4.30;0.90;;;;;;;;;;5076064;28;20543;-63
2023/03/15 10:20:29;;;;;;;1.83;1.23;;;;;;;;;;5079801;28;20314;-64
2023/03/15 10:23:00;;;;;;;3.80;1.03;;;;;;;;;;5072152;28;20199;-63
2023/03/15 10:25:32;;;;;;;1.73;1.37;;;;;;;;;;5079938;28;20206;-63
2023/03/15 10:28:01;;;;;;;1.43;0.90;;;;;;;;;;5079964;28;20208;-63
2023/03/15 10:30:30;;;;;;;2.97;0.80;;;;;;;;;;5079668;28;20218;-64
2023/03/15 10:33:00;;;;;;;2.10;0.93;;;;;;;;;;5079702;28;20206;-63
2023/03/15 10:35:28;;;;;;;2.77;1.00;;;;;;;;;;5079704;28;20226;-63
2023/03/15 10:37:56;;;;;;;1.43;0.90;;;;;;;;;;5079558;28;20209;-63
2023/03/15 10:40:42;;;;;;;2.57;1.33;;;;;;;;;;5079333;28;20253;-63
2023/03/15 10:43:16;;;;;;;3.50;1.10;;;;;;;;;;5079811;28;20669;-63
2023/03/15 10:45:46;;;;;;;3.07;1.03;;;;;;;;;;5079665;28;20283;-63
2023/03/15 10:48:14;;;;;;;2.77;1.43;;;;;;;;;;5079592;28;20685;-63
2023/03/15 10:50:42;;;;;;;1.77;1.00;;;;;;;;;;5094460;28;20218;-63
2023/03/15 10:53:11;;;;;;;2.07;0.90;;;;;;;;;;5099725;28;20554;-63
2023/03/15 10:55:44;;;;;;;3.90;0.90;;;;;;;;;;5093155;28;20206;-63
2023/03/15 10:58:14;;;;;;;5.87;1.13;;;;;;;;;;5079646;28;20202;-64
2023/03/15 11:00:48;;;;;;;1.70;1.00;;;;;;;;;;5079417;28;20234;-63
2023/03/15 11:03:17;;;;;;;1.60;1.20;;;;;;;;;;5079526;28;20221;-63
2023/03/15 11:05:46;;;;;;;1.77;1.30;;;;;;;;;;5079470;28;20231;-63
2023/03/15 11:08:16;;;;;;;1.90;1.50;;;;;;;;;;5079313;28;20273;-64
2023/03/15 11:10:45;;;;;;;2.10;1.20;;;;;;;;;;5078695;28;20242;-64
2023/03/15 11:13:19;;;;;;;3.47;1.67;;;;;;;;;;5078992;28;20202;-63
2023/03/15 11:15:49;;;;;;;1.67;1.17;;;;;;;;;;5079295;28;20216;-64
2023/03/15 11:18:18;;;;;;;2.63;1.10;;;;;;;;;;5078948;28;20206;-64
2023/03/15 11:20:46;;;;;;;2.20;1.30;;;;;;;;;;5079025;28;20241;-63
2023/03/15 11:23:17;;;;;;;1.33;1.13;;;;;;;;;;5078646;28;20228;-63
2023/03/15 11:25:46;;;;;;;2.93;1.13;;;;;;;;;;5078553;28;20256;-64
2023/03/15 11:28:17;;;;;;;1.30;1.20;;;;;;;;;;5078699;28;20553;-64
2023/03/15 11:30:46;;;;;;;3.93;1.07;;;;;;;;;;5078767;28;20238;-64
2023/03/15 11:33:22;;;;;;;6.13;1.30;;;;;;;;;;5078911;28;20210;-64
2023/03/15 11:35:51;;;;;;;1.47;0.77;;;;;;;;;;5078478;28;20575;-64
2023/03/15 11:38:24;;;;;;;1.20;0.77;;;;;;;;;;5078791;28;20292;-64
2023/03/15 11:40:56;;;;;;;3.80;1.60;;;;;;;;;;5078385;28;20317;-64
2023/03/15 11:43:25;;;;;;;0.80;0.80;;;;;;;;;;5078396;28;20573;-64
2023/03/15 11:45:55;;;;;;;2.20;1.07;;;;;;;;;;5078280;28;20202;-64
2023/03/15 11:48:26;;;;;;;2.63;1.07;;;;;;;;;;5078357;28;20206;-64
2023/03/15 11:50:54;;;;;;;3.83;0.87;;;;;;;;;;5078304;28;20758;-64
2023/03/15 11:53:22;;;;;;;3.00;0.97;;;;;;;;;;5078461;28;20244;-63
2023/03/15 11:55:53;;;;;;;3.43;1.20;;;;;;;;;;5078219;28;20206;-64
2023/03/15 11:58:31;;;;;;;2.13;1.03;;;;;;;;;;5078449;28;20209;-63
2023/03/15 12:01:03;;;;;;;1.83;1.10;;;;;;;;;;5077971;28;20261;-64
2023/03/15 12:03:39;;;;;;;2.43;1.50;;;;;;;;;;5078203;28;20205;-64
2023/03/15 12:06:11;;;;;;;18.83;10.83;;;;;;;;;;5078372;28;20244;-64
2023/03/15 12:08:49;;;;;;;8.20;4.93;;;;;;;;;;5078168;28;20305;-64
2023/03/15 12:11:36;;;;;;;1.63;1.30;;;;;;;;;;5077775;28;20257;-64
2023/03/15 12:14:06;;;;;;;1.57;1.37;;;;;;;;;;5078133;28;20210;-63
2023/03/15 12:16:39;;;;;;;3.33;1.30;;;;;;;;;;5077769;28;20297;-61
2023/03/15 12:19:10;;;;;;;7.80;4.80;;;;;;;;;;5077607;28;20649;-61
2023/03/15 12:21:40;;;;;;;3.80;1.77;;;;;;;;;;5077854;28;20232;-62
2023/03/15 12:24:14;;;;;;;3.10;1.20;;;;;;;;;;5074013;28;20553;-62
2023/03/15 12:26:43;;;;;;;3.23;1.00;;;;;;;;;;5077108;28;20236;-62
2023/03/15 12:29:20;;;;;;;2.07;1.10;;;;;;;;;;5067523;28;20206;-62
2023/03/15 12:31:53;;;;;;;2.33;1.20;;;;;;;;;;5077522;28;20206;-62
2023/03/15 12:34:26;;;;;;;3.40;0.90;;;;;;;;;;5077313;28;20217;-62
2023/03/15 12:36:56;;;;;;;2.33;0.90;;;;;;;;;;5077631;28;20207;-62
2023/03/15 12:39:36;;;;;;;6.03;3.47;;;;;;;;;;5076701;28;20218;-63
2023/03/15 12:42:04;;;;;;;1.23;0.80;;;;;;;;;;5074273;28;20300;-62
2023/03/15 12:44:41;;;;;;;1.77;0.90;;;;;;;;;;5076605;28;20328;-62
2023/03/15 12:47:09;;;;;;;1.60;0.60;;;;;;;;;;5074795;28;20201;-62
2023/03/15 12:49:38;;;;;;;2.13;0.73;;;;;;;;;;5077879;28;20257;-62
2023/03/15 12:52:13;;;;;;;1.60;0.87;;;;;;;;;;5078844;28;20233;-62
2023/03/15 12:54:43;;;;;;;1.80;1.10;;;;;;;;;;5076746;28;20300;-62
2023/03/15 12:57:12;;;;;;;1.03;0.80;;;;;;;;;;5076933;28;20280;-62
2023/03/15 12:59:44;;;;;;;0.87;0.70;;;;;;;;;;5076204;28;20300;-62
2023/03/15 13:02:33;;;;;;;0.70;0.70;;;;;;;;;;5076863;28;20228;-62
2023/03/15 13:05:19;;;;;;;0.80;0.80;;;;;;;;;;5077179;28;20209;-62
2023/03/15 13:08:05;;;;;;;0.50;0.50;;;;;;;;;;5077720;28;20261;-62
2023/03/15 13:10:47;;;;;;;2.40;0.70;;;;;;;;;;5073832;28;20287;-62
2023/03/15 13:13:23;;;;;;;1.23;0.60;;;;;;;;;;5075315;28;20206;-62
2023/03/15 13:15:58;;;;;;;1.43;0.90;;;;;;;;;;5081000;28;20212;-62
2023/03/15 13:18:27;;;;;;;0.70;0.70;;;;;;;;;;5076376;28;21263;-62
2023/03/15 13:21:00;;;;;;;1.73;0.67;;;;;;;;;;5070629;28;20597;-63
2023/03/15 13:23:29;;;;;;;0.57;0.57;;;;;;;;;;5085585;28;20224;-63
2023/03/15 13:26:15;;;;;;;1.10;0.90;;;;;;;;;;5101121;28;20210;-64
2023/03/15 13:28:48;;;;;;;2.10;0.80;;;;;;;;;;5101306;28;20728;-64
2023/03/15 13:31:20;;;;;;;1.37;0.60;;;;;;;;;;5101080;28;20700;-64
2023/03/15 13:33:49;;;;;;;0.70;0.60;;;;;;;;;;5101221;28;20213;-63
2023/03/15 13:36:19;;;;;;;1.53;0.83;;;;;;;;;;5101343;28;20209;-63
2023/03/15 13:38:48;;;;;;;1.23;0.63;;;;;;;;;;5101692;28;20205;-64
2023/03/15 13:41:17;;;;;;;0.97;0.83;;;;;;;;;;5080542;28;20700;-63
2023/03/15 13:43:45;;;;;;;0.93;0.50;;;;;;;;;;5080774;28;20575;-63
2023/03/15 13:46:13;;;;;;;0.43;0.43;;;;;;;;;;5080497;28;20692;-64
2023/03/15 13:48:44;;;;;;;0.90;0.70;;;;;;;;;;5080683;28;20206;-64
2023/03/15 13:51:17;;;;;;;0.63;0.63;;;;;;;;;;5080804;28;20245;-64
2023/03/15 13:53:46;;;;;;;1.23;0.50;;;;;;;;;;5080923;28;20270;-64
2023/03/15 13:56:18;;;;;;;1.20;0.43;;;;;;;;;;5071707;28;20217;-64
2023/03/15 13:58:46;;;;;;;1.43;0.67;;;;;;;;;;5080683;28;20208;-64
2023/03/15 14:01:14;;;;;;;1.47;0.80;;;;;;;;;;5080169;28;20711;-65
2023/03/15 14:03:47;;;;;;;1.47;0.80;;;;;;;;;;5072417;28;20234;-63
2023/03/15 14:06:21;;;;;;;2.43;0.90;;;;;;;;;;5073668;28;20206;-62
2023/03/15 14:08:53;;;;;;;0.70;0.70;;;;;;;;;;5075609;28;20286;-62
2023/03/15 14:11:33;;;;;;;0.60;0.60;;;;;;;;;;5079548;28;20251;-62
2023/03/15 14:14:04;;;;;;;0.73;0.70;;;;;;;;;;5079975;28;20217;-61
2023/03/15 14:16:33;;;;;;;1.27;0.60;;;;;;;;;;5079798;28;20214;-61
2023/03/15 14:19:14;;;;;;;3.73;0.83;;;;;;;;;;5079863;28;20220;-62
2023/03/15 14:21:43;;;;;;;3.80;0.83;;;;;;;;;;5079765;28;20253;-62
2023/03/15 14:24:17;;;;;;;0.73;0.70;;;;;;;;;;5090371;28;20202;-62
2023/03/15 14:26:50;;;;;;;0.30;0.30;;;;;;;;;;5067318;28;20245;-62
2023/03/15 14:29:22;;;;;;;0.53;0.53;;;;;;;;;;5079527;28;20704;-62
2023/03/15 14:31:51;;;;;;;0.50;0.50;;;;;;;;;;5079711;28;20562;-61
2023/03/15 14:34:24;;;;;;;1.27;0.90;;;;;;;;;;5079881;28;20210;-61
2023/03/15 14:36:56;;;;;;;0.70;0.63;;;;;;;;;;5079907;28;20296;-62
2023/03/15 14:39:26;;;;;;;1.27;0.60;;;;;;;;;;5079367;28;20233;-62
2023/03/15 14:41:54;;;;;;;1.43;0.67;;;;;;;;;;5074192;28;20245;-62
2023/03/15 14:44:22;;;;;;;1.43;0.60;;;;;;;;;;5079532;28;20276;-62
2023/03/15 14:46:51;;;;;;;1.80;1.17;;;;;;;;;;5079219;28;20292;-62
2023/03/15 14:49:23;;;;;;;1.23;0.90;;;;;;;;;;5079541;28;20222;-62
2023/03/15 14:51:53;;;;;;;2.07;0.90;;;;;;;;;;5079250;28;20758;-61
2023/03/15 14:54:21;;;;;;;2.83;0.97;;;;;;;;;;5079050;28;20210;-62
2023/03/15 14:56:49;;;;;;;1.13;0.90;;;;;;;;;;5078907;28;20206;-62
2023/03/15 14:59:18;;;;;;;1.93;1.00;;;;;;;;;;5066444;28;20276;-62